createdAt,value
2022-08-29T00:01:12.117Z,9.43
2022-08-29T00:03:40.666Z,9.87
2022-08-29T00:06:08.111Z,9.13
2022-08-29T00:08:35.105Z,10.67
2022-08-29T00:11:02.300Z,9.67
2022-08-29T00:13:29.307Z,10.60
2022-08-29T00:15:56.292Z,10.00
2022-08-29T00:18:23.224Z,9.67
2022-08-29T00:20:50.449Z,10.27
2022-08-29T00:23:17.775Z,10.90
2022-08-29T00:25:44.741Z,11.13
2022-08-29T00:28:12.014Z,10.63
2022-08-29T00:30:39.739Z,11.43
2022-08-29T00:33:07.039Z,11.47
2022-08-29T00:35:36.981Z,11.63
2022-08-29T00:38:06.261Z,11.47
2022-08-29T00:40:41.005Z,11.90
2022-08-29T00:43:09.201Z,11.47
2022-08-29T00:45:38.881Z,12.57
2022-08-29T00:48:15.488Z,11.60
2022-08-29T00:50:51.098Z,12.00
2022-08-29T00:53:23.602Z,11.70
2022-08-29T00:55:51.365Z,11.97
2022-08-29T00:58:26.616Z,12.23
2022-08-29T01:00:53.879Z,12.80
2022-08-29T01:03:20.844Z,12.00
2022-08-29T01:05:48.708Z,12.20
2022-08-29T01:08:15.866Z,12.00
2022-08-29T01:11:01.690Z,11.77
2022-08-29T01:13:35.409Z,11.30
2022-08-29T01:16:04.862Z,12.10
2022-08-29T01:18:34.533Z,11.37
2022-08-29T01:21:07.850Z,11.43
2022-08-29T01:23:44.196Z,11.70
2022-08-29T01:26:11.990Z,11.70
2022-08-29T01:28:43.180Z,11.57
2022-08-29T01:31:42.095Z,12.40
2022-08-29T01:34:10.620Z,12.37
2022-08-29T01:36:50.568Z,12.07
2022-08-29T01:39:18.722Z,12.07
2022-08-29T01:41:49.066Z,12.13
2022-08-29T01:44:19.537Z,12.63
2022-08-29T01:46:48.916Z,12.50
2022-08-29T01:49:18.055Z,12.83
2022-08-29T01:51:45.853Z,12.63
2022-08-29T01:54:14.028Z,12.57
2022-08-29T01:56:46.990Z,11.80
2022-08-29T01:59:17.298Z,13.67
2022-08-29T02:01:58.161Z,12.33
2022-08-29T02:04:25.325Z,12.60
2022-08-29T02:06:52.674Z,13.80
2022-08-29T02:09:19.554Z,14.03
2022-08-29T02:11:48.276Z,13.87
2022-08-29T02:14:19.069Z,13.43
2022-08-29T02:16:46.516Z,14.50
2022-08-29T02:19:13.519Z,14.57
2022-08-29T02:21:41.068Z,14.73
2022-08-29T02:24:24.416Z,15.73
2022-08-29T02:26:55.343Z,14.63
2022-08-29T02:29:23.187Z,15.07
2022-08-29T02:31:50.127Z,14.93
2022-08-29T02:34:17.317Z,14.57
2022-08-29T02:36:44.535Z,14.47
2022-08-29T02:39:11.840Z,13.97
2022-08-29T02:41:39.016Z,14.53
2022-08-29T02:44:06.059Z,14.87
2022-08-29T02:46:33.411Z,15.80
2022-08-29T02:49:01.232Z,15.87
2022-08-29T02:51:31.612Z,16.50
2022-08-29T02:54:00.398Z,16.57
2022-08-29T02:56:28.009Z,17.97
2022-08-29T02:58:54.837Z,19.70
2022-08-29T03:01:22.805Z,18.30
2022-08-29T03:03:50.515Z,18.77
2022-08-29T03:06:20.116Z,19.10
2022-08-29T03:08:47.280Z,18.00
2022-08-29T03:11:14.341Z,18.77
2022-08-29T03:13:44.277Z,18.10
2022-08-29T03:16:12.336Z,20.50
2022-08-29T03:18:39.622Z,19.70
2022-08-29T03:21:25.233Z,21.27
2022-08-29T03:23:53.766Z,20.30
2022-08-29T03:26:20.785Z,20.07
2022-08-29T03:28:48.238Z,20.37
2022-08-29T03:31:15.500Z,22.30
2022-08-29T03:33:42.732Z,23.07
2022-08-29T03:36:14.383Z,22.00
2022-08-29T03:38:43.469Z,22.70
2022-08-29T03:41:10.371Z,23.57
2022-08-29T03:43:37.607Z,24.10
2022-08-29T03:46:04.533Z,23.90
2022-08-29T03:48:33.342Z,24.27
2022-08-29T03:51:00.270Z,23.73
2022-08-29T03:53:27.669Z,25.30
2022-08-29T03:55:54.848Z,24.90
2022-08-29T03:58:21.826Z,25.67
2022-08-29T04:00:48.754Z,24.70
2022-08-29T04:03:16.440Z,25.23
2022-08-29T04:05:43.653Z,25.03
2022-08-29T04:08:10.538Z,26.30
2022-08-29T04:10:39.492Z,25.23
2022-08-29T04:13:08.732Z,24.63
2022-08-29T04:15:37.404Z,26.17
2022-08-29T04:18:07.095Z,26.73
2022-08-29T04:20:38.590Z,25.77
2022-08-29T04:23:06.318Z,27.33
2022-08-29T04:25:37.783Z,26.20
2022-08-29T04:28:11.077Z,26.90
2022-08-29T04:30:39.260Z,27.70
2022-08-29T04:33:06.881Z,27.43
2022-08-29T04:35:35.568Z,28.27
2022-08-29T04:38:02.727Z,28.83
2022-08-29T04:40:29.716Z,26.13
2022-08-29T04:42:58.160Z,26.13
2022-08-29T04:45:25.943Z,25.43
2022-08-29T04:47:53.314Z,25.40
2022-08-29T04:50:23.348Z,23.70
2022-08-29T04:52:52.425Z,23.27
2022-08-29T04:55:22.723Z,22.93
2022-08-29T04:57:56.361Z,23.03
2022-08-29T05:00:26.960Z,22.70
2022-08-29T05:02:53.851Z,21.17
2022-08-29T05:05:20.754Z,19.57
2022-08-29T05:07:48.332Z,18.73
2022-08-29T05:10:20.429Z,13.60
2022-08-29T05:12:47.805Z,8.60
2022-08-29T05:15:15.900Z,7.83
2022-08-29T05:17:43.680Z,7.60
2022-08-29T05:20:11.076Z,7.50
2022-08-29T05:22:39.082Z,6.40
2022-08-29T05:25:06.541Z,5.60
2022-08-29T05:27:33.556Z,6.13
2022-08-29T05:30:01.674Z,6.07
2022-08-29T05:32:28.541Z,6.03
2022-08-29T05:34:56.027Z,5.47
2022-08-29T05:37:23.330Z,5.63
2022-08-29T05:39:50.728Z,5.83
2022-08-29T05:42:21.005Z,5.60
2022-08-29T05:44:48.047Z,4.53
2022-08-29T05:47:16.958Z,5.20
2022-08-29T05:49:45.513Z,5.50
2022-08-29T05:52:13.930Z,5.07
2022-08-29T05:54:42.533Z,5.53
2022-08-29T05:57:14.173Z,5.90
2022-08-29T05:59:43.949Z,6.17
2022-08-29T06:02:19.399Z,6.33
2022-08-29T06:04:46.551Z,6.07
2022-08-29T06:07:14.721Z,6.00
2022-08-29T06:09:42.888Z,6.07
2022-08-29T06:12:10.706Z,7.00
2022-08-29T06:14:38.262Z,6.10
2022-08-29T06:17:07.995Z,6.50
2022-08-29T06:19:36.901Z,6.23
2022-08-29T06:22:09.808Z,6.90
2022-08-29T06:24:38.601Z,7.07
2022-08-29T06:27:06.067Z,6.80
2022-08-29T06:32:14.130Z,6.70
2022-08-29T06:34:41.398Z,6.93
2022-08-29T06:37:16.341Z,7.40
2022-08-29T06:39:43.350Z,7.50
2022-08-29T06:42:10.454Z,6.80
2022-08-29T06:44:44.283Z,7.27
2022-08-29T06:47:11.363Z,7.43
2022-08-29T06:49:38.205Z,7.50
2022-08-29T06:52:10.846Z,7.73
2022-08-29T06:54:38.621Z,7.77
2022-08-29T06:57:05.868Z,7.40
2022-08-29T06:59:32.854Z,8.17
2022-08-29T07:02:15.655Z,7.77
2022-08-29T07:04:54.043Z,8.83
2022-08-29T07:07:21.059Z,7.97
2022-08-29T07:09:47.874Z,8.50
2022-08-29T07:12:14.708Z,7.77
2022-08-29T07:14:41.547Z,8.57
2022-08-29T07:17:08.485Z,7.70
2022-08-29T07:19:35.374Z,8.07
2022-08-29T07:22:02.376Z,8.40
2022-08-29T07:24:29.388Z,8.83
2022-08-29T07:26:56.217Z,8.70
2022-08-29T07:29:23.342Z,8.57
2022-08-29T07:31:50.511Z,8.10
2022-08-29T07:34:20.565Z,7.90
2022-08-29T07:36:47.870Z,7.53
2022-08-29T07:39:18.324Z,7.50
2022-08-29T07:41:45.721Z,8.40
2022-08-29T07:44:13.529Z,8.20
2022-08-29T07:46:41.212Z,8.90
2022-08-29T07:49:08.292Z,8.87
2022-08-29T07:51:36.088Z,8.50
2022-08-29T07:54:04.503Z,9.20
2022-08-29T07:56:37.725Z,8.53
2022-08-29T07:59:08.042Z,8.20
2022-08-29T08:04:18.233Z,7.07
2022-08-29T08:07:13.552Z,7.03
2022-08-29T08:09:59.148Z,7.13
2022-08-29T08:16:01.221Z,7.20
2022-08-29T08:18:36.798Z,7.50
2022-08-29T08:21:04.386Z,8.00
2022-08-29T08:23:46.868Z,7.60
2022-08-29T08:26:23.547Z,7.80
2022-08-29T08:31:50.263Z,7.77
2022-08-29T08:34:19.205Z,7.53
2022-08-29T08:42:51.230Z,9.27
2022-08-29T08:45:36.743Z,9.13
2022-08-29T08:48:08.142Z,12.10
2022-08-29T08:51:08.935Z,10.23
2022-08-29T08:53:49.100Z,10.97
2022-08-29T08:59:03.176Z,10.87
2022-08-29T09:01:39.818Z,11.23
2022-08-29T09:04:28.245Z,11.17
2022-08-29T09:07:16.365Z,12.30
2022-08-29T09:10:37.098Z,11.80
2022-08-29T09:13:16.763Z,11.53
2022-08-29T09:15:46.618Z,11.50
2022-08-29T09:18:38.212Z,11.37
2022-08-29T09:21:37.006Z,10.67
2022-08-29T09:24:03.444Z,10.00
2022-08-29T09:26:30.374Z,8.60
2022-08-29T09:28:59.079Z,8.10
2022-08-29T09:31:27.920Z,7.60
2022-08-29T09:33:56.445Z,6.90
2022-08-29T09:36:35.265Z,6.77
2022-08-29T09:39:29.796Z,4.80
2022-08-29T09:42:14.007Z,4.80
2022-08-29T09:44:51.102Z,4.50
2022-08-29T09:47:29.826Z,4.43
2022-08-29T09:50:25.760Z,4.30
2022-08-29T09:53:11.659Z,4.10
2022-08-29T09:55:52.473Z,4.40
2022-08-29T09:58:24.428Z,4.73
2022-08-29T10:01:19.238Z,4.13
2022-08-29T10:04:09.814Z,4.00
2022-08-29T10:06:45.047Z,3.85
2022-08-29T10:09:29.853Z,3.78
2022-08-29T10:12:08.058Z,3.80
2022-08-29T10:14:51.484Z,3.40
2022-08-29T10:17:59.739Z,3.25
2022-08-29T10:21:00.737Z,3.50
2022-08-29T10:24:04.592Z,3.08
2022-08-29T10:27:00.550Z,2.90
2022-08-29T10:29:40.016Z,3.15
2022-08-29T10:35:41.727Z,3.72
2022-08-29T10:49:40.779Z,3.28
2022-08-29T10:53:03.360Z,3.10
2022-08-29T10:55:48.789Z,3.40
2022-08-29T10:58:41.746Z,3.35
2022-08-29T11:01:21.578Z,3.17
2022-08-29T11:04:20.188Z,2.90
2022-08-29T11:07:12.168Z,3.33
2022-08-29T11:10:22.817Z,3.10
2022-08-29T11:12:52.733Z,2.90
2022-08-29T11:15:48.438Z,3.23
2022-08-29T11:19:05.692Z,3.27
2022-08-29T11:22:14.285Z,2.85
2022-08-29T11:24:47.017Z,2.97
2022-08-29T11:27:34.766Z,2.65
2022-08-29T11:30:44.915Z,2.85
2022-08-29T11:33:32.561Z,2.90
2022-08-29T11:36:08.620Z,2.45
2022-08-29T11:38:59.555Z,2.83
2022-08-29T11:41:31.699Z,2.60
2022-08-29T11:44:26.081Z,2.90
2022-08-29T11:46:56.464Z,2.90
2022-08-29T11:49:51.386Z,2.60
2022-08-29T11:52:30.256Z,2.63
2022-08-29T11:55:31.229Z,2.78
2022-08-29T11:58:15.741Z,3.10
2022-08-29T12:03:56.732Z,2.72
2022-08-29T12:10:19.455Z,3.15
2022-08-29T12:12:56.607Z,2.90
2022-08-29T12:15:32.647Z,3.10
2022-08-29T12:19:33.038Z,2.58
2022-08-29T12:21:47.128Z,2.92
2022-08-29T12:24:41.602Z,2.70
2022-08-29T12:27:46.291Z,2.70
2022-08-29T12:30:38.549Z,2.97
2022-08-29T12:33:24.127Z,2.72
2022-08-29T12:36:25.692Z,2.78
2022-08-29T12:39:11.177Z,3.03
2022-08-29T12:42:10.993Z,2.70
2022-08-29T12:44:39.678Z,3.03
2022-08-29T12:47:23.035Z,2.60
2022-08-29T12:49:55.920Z,2.60
2022-08-29T12:52:29.632Z,2.72
2022-08-29T12:54:59.272Z,2.28
2022-08-29T12:57:34.533Z,2.28
2022-08-29T13:00:04.088Z,2.13
2022-08-29T13:02:32.606Z,2.20
2022-08-29T13:05:00.207Z,2.20
2022-08-29T13:07:28.900Z,2.30
2022-08-29T13:09:59.216Z,2.13
2022-08-29T13:12:52.211Z,2.30
2022-08-29T13:15:30.830Z,2.70
2022-08-29T13:17:59.584Z,2.10
2022-08-29T13:21:26.897Z,2.38
2022-08-29T13:24:13.609Z,2.03
2022-08-29T13:27:04.214Z,2.40
2022-08-29T13:29:45.064Z,2.50
2022-08-29T13:32:23.890Z,2.30
2022-08-29T13:35:01.193Z,2.45
2022-08-29T13:37:39.956Z,2.13
2022-08-29T13:40:30.499Z,2.20
2022-08-29T13:43:06.120Z,1.95
2022-08-29T13:45:34.239Z,1.98
2022-08-29T13:48:20.374Z,1.95
2022-08-29T13:53:19.480Z,2.63
2022-08-29T13:55:47.224Z,3.00
2022-08-29T13:58:20.849Z,2.10
2022-08-29T14:00:49.181Z,2.30
2022-08-29T14:03:28.866Z,2.10
2022-08-29T14:06:27.027Z,2.20
2022-08-29T14:09:06.499Z,2.28
2022-08-29T14:11:33.378Z,1.95
2022-08-29T14:14:03.218Z,1.98
2022-08-29T14:16:30.178Z,2.00
2022-08-29T14:19:05.327Z,1.90
2022-08-29T14:21:44.430Z,2.10
2022-08-29T14:24:13.412Z,2.00
2022-08-29T14:26:40.604Z,2.00
2022-08-29T14:29:08.230Z,2.00
2022-08-29T14:31:35.619Z,1.90
2022-08-29T14:34:03.056Z,2.38
2022-08-29T14:36:30.371Z,2.15
2022-08-29T14:38:58.523Z,1.75
2022-08-29T14:41:28.834Z,2.10
2022-08-29T14:43:55.874Z,2.13
2022-08-29T14:46:29.003Z,2.40
2022-08-29T14:48:56.038Z,2.40
2022-08-29T14:51:23.321Z,2.20
2022-08-29T14:53:54.643Z,2.30
2022-08-29T14:56:47.070Z,2.17
2022-08-29T14:59:16.138Z,2.40
2022-08-29T15:01:43.352Z,2.20
2022-08-29T15:04:36.282Z,2.30
2022-08-29T15:07:13.584Z,2.08
2022-08-29T15:09:42.075Z,2.08
2022-08-29T15:12:10.471Z,2.30
2022-08-29T15:14:37.432Z,2.38
2022-08-29T15:17:05.805Z,1.90
2022-08-29T15:22:29.353Z,2.22
2022-08-29T15:24:56.484Z,1.80
2022-08-29T15:27:27.468Z,2.00
2022-08-29T15:30:04.510Z,2.67
2022-08-29T15:32:31.634Z,2.40
2022-08-29T15:34:58.658Z,2.40
2022-08-29T15:37:25.505Z,2.50
2022-08-29T15:39:54.676Z,2.83
2022-08-29T15:42:28.544Z,2.40
2022-08-29T15:45:02.326Z,2.43
2022-08-29T15:47:29.456Z,2.10
2022-08-29T15:49:56.396Z,2.27
2022-08-29T15:52:23.392Z,2.50
2022-08-29T15:54:50.508Z,2.40
2022-08-29T15:57:17.396Z,2.40
2022-08-29T15:59:57.729Z,2.40
2022-08-29T16:02:40.905Z,2.17
2022-08-29T16:05:08.028Z,2.30
2022-08-29T16:07:34.872Z,2.30
2022-08-29T16:10:05.061Z,2.33
2022-08-29T16:12:39.786Z,2.80
2022-08-29T16:15:09.800Z,2.20
2022-08-29T16:17:38.001Z,2.10
2022-08-29T16:20:11.651Z,2.60
2022-08-29T16:22:40.789Z,2.60
2022-08-29T16:25:10.394Z,2.03
2022-08-29T16:27:37.500Z,2.20
2022-08-29T16:30:05.359Z,2.10
2022-08-29T16:32:32.325Z,2.15
2022-08-29T16:35:00.178Z,2.00
2022-08-29T16:37:28.189Z,2.38
2022-08-29T16:39:55.600Z,1.98
2022-08-29T16:42:25.566Z,2.00
2022-08-29T16:44:58.192Z,2.00
2022-08-29T16:47:25.337Z,2.00
2022-08-29T16:49:53.694Z,2.13
2022-08-29T16:52:23.791Z,2.00
2022-08-29T16:54:53.738Z,2.22
2022-08-29T16:57:21.325Z,2.20
2022-08-29T16:59:48.154Z,2.47
2022-08-29T17:02:15.130Z,2.30
2022-08-29T17:04:42.892Z,2.30
2022-08-29T17:07:09.896Z,2.17
2022-08-29T17:09:40.440Z,2.20
2022-08-29T17:12:07.696Z,1.93
2022-08-29T17:14:37.034Z,2.40
2022-08-29T17:17:04.195Z,2.20
2022-08-29T17:19:38.947Z,2.20
2022-08-29T17:22:05.888Z,2.30
2022-08-29T17:24:32.807Z,2.00
2022-08-29T17:27:02.840Z,2.00
2022-08-29T17:29:41.922Z,1.97
2022-08-29T17:32:15.086Z,1.90
2022-08-29T17:34:42.891Z,2.00
2022-08-29T17:37:12.300Z,2.00
2022-08-29T17:39:40.098Z,2.10
2022-08-29T17:42:07.557Z,2.22
2022-08-29T17:44:35.366Z,2.30
2022-08-29T17:47:02.582Z,2.30
2022-08-29T17:49:29.553Z,2.10
2022-08-29T17:51:56.545Z,2.13
2022-08-29T17:54:24.877Z,2.20
2022-08-29T17:56:58.282Z,2.10
2022-08-29T17:59:27.949Z,2.47
2022-08-29T18:01:55.600Z,2.30
2022-08-29T18:04:23.404Z,2.10
2022-08-29T18:06:51.885Z,2.27
2022-08-29T18:09:19.600Z,2.50
2022-08-29T18:11:52.002Z,2.57
2022-08-29T18:14:22.622Z,2.60
2022-08-29T18:16:50.510Z,2.70
2022-08-29T18:19:18.034Z,2.40
2022-08-29T18:21:45.610Z,2.60
2022-08-29T18:24:14.888Z,2.43
2022-08-29T18:26:42.906Z,2.30
2022-08-29T18:29:10.237Z,2.43
2022-08-29T18:31:37.089Z,2.70
2022-08-29T18:34:05.312Z,2.83
2022-08-29T18:36:33.804Z,2.73
2022-08-29T18:39:02.841Z,2.40
2022-08-29T18:41:29.941Z,2.50
2022-08-29T18:43:57.188Z,2.43
2022-08-29T18:46:24.062Z,2.80
2022-08-29T18:48:51.428Z,2.73
2022-08-29T18:51:18.968Z,3.20
2022-08-29T18:53:47.049Z,2.60
2022-08-29T18:56:14.261Z,2.37
2022-08-29T18:58:42.777Z,2.90
2022-08-29T19:01:12.185Z,2.70
2022-08-29T19:03:40.446Z,2.90
2022-08-29T19:06:07.835Z,2.80
2022-08-29T19:08:34.718Z,2.80
2022-08-29T19:11:01.574Z,3.00
2022-08-29T19:13:30.685Z,2.80
2022-08-29T19:15:59.731Z,2.90
2022-08-29T19:18:27.854Z,2.87
2022-08-29T19:21:06.437Z,3.37
2022-08-29T19:23:43.779Z,2.70
2022-08-29T19:26:17.253Z,3.13
2022-08-29T19:28:44.309Z,3.10
2022-08-29T19:31:11.472Z,2.87
2022-08-29T19:33:42.209Z,3.10
2022-08-29T19:36:09.807Z,3.37
2022-08-29T19:38:36.951Z,3.10
2022-08-29T19:41:05.890Z,3.13
2022-08-29T19:43:34.242Z,3.20
2022-08-29T19:46:02.689Z,3.20
2022-08-29T19:48:30.080Z,3.13
2022-08-29T19:50:57.006Z,3.00
2022-08-29T19:53:26.928Z,3.27
2022-08-29T19:55:56.181Z,3.07
2022-08-29T19:58:31.109Z,3.47
2022-08-29T20:01:03.922Z,3.37
2022-08-29T20:03:32.388Z,2.60
2022-08-29T20:06:00.325Z,3.27
2022-08-29T20:08:27.501Z,3.07
2022-08-29T20:10:58.330Z,3.17
2022-08-29T20:13:27.386Z,3.47
2022-08-29T20:16:00.206Z,2.80
2022-08-29T20:18:27.174Z,3.57
2022-08-29T20:20:55.492Z,3.40
2022-08-29T20:23:25.359Z,3.53
2022-08-29T20:25:52.486Z,3.60
2022-08-29T20:28:42.830Z,3.07
2022-08-29T20:34:12.575Z,3.20
2022-08-29T20:36:59.528Z,3.40
2022-08-29T20:39:32.540Z,3.50
2022-08-29T20:42:00.145Z,3.60
2022-08-29T20:44:33.716Z,3.53
2022-08-29T20:47:01.656Z,3.40
2022-08-29T20:49:28.685Z,3.80
2022-08-29T20:51:59.520Z,4.00
2022-08-29T20:54:26.592Z,3.40
2022-08-29T20:57:06.823Z,3.83
2022-08-29T20:59:37.876Z,3.40
2022-08-29T21:02:49.038Z,3.70
2022-08-29T21:05:40.534Z,3.47
2022-08-29T21:08:12.802Z,3.80
2022-08-29T21:10:39.759Z,3.70
2022-08-29T21:13:06.703Z,3.97
2022-08-29T21:15:33.633Z,4.07
2022-08-29T21:18:11.538Z,3.90
2022-08-29T21:20:55.277Z,3.30
2022-08-29T21:23:24.752Z,4.03
2022-08-29T21:25:57.544Z,4.17
2022-08-29T21:28:34.893Z,3.73
2022-08-29T21:31:12.694Z,3.77
2022-08-29T21:33:42.596Z,4.20
2022-08-29T21:36:14.921Z,3.90
2022-08-29T21:38:46.658Z,4.20
2022-08-29T21:41:14.958Z,4.13
2022-08-29T21:43:42.472Z,4.00
2022-08-29T21:46:43.451Z,3.70
2022-08-29T21:49:17.106Z,4.10
2022-08-29T21:51:57.125Z,3.67
2022-08-29T21:54:48.923Z,4.10
2022-08-29T21:57:39.483Z,4.30
2022-08-29T22:00:07.904Z,3.90
2022-08-29T22:02:35.604Z,4.03
2022-08-29T22:05:02.644Z,4.30
2022-08-29T22:07:30.310Z,3.90
2022-08-29T22:09:57.177Z,4.27
2022-08-29T22:12:25.222Z,4.50
2022-08-29T22:15:10.527Z,4.40
2022-08-29T22:17:37.408Z,4.20
2022-08-29T22:20:12.814Z,4.40
2022-08-29T22:22:40.279Z,4.50
2022-08-29T22:25:07.873Z,4.40
2022-08-29T22:27:34.774Z,5.17
2022-08-29T22:30:02.209Z,4.70
2022-08-29T22:32:32.287Z,4.10
2022-08-29T22:35:04.888Z,4.47
2022-08-29T22:37:31.983Z,4.57
2022-08-29T22:39:59.418Z,5.03
2022-08-29T22:42:26.378Z,4.93
2022-08-29T22:45:09.711Z,4.30
2022-08-29T22:47:39.238Z,4.80
2022-08-29T22:50:11.281Z,4.37
2022-08-29T22:52:38.392Z,4.80
2022-08-29T22:55:10.221Z,4.67
2022-08-29T22:57:37.335Z,4.70
2022-08-29T23:00:11.319Z,4.50
2022-08-29T23:02:38.626Z,4.80
2022-08-29T23:05:09.936Z,4.70
2022-08-29T23:07:43.620Z,5.47
2022-08-29T23:10:11.619Z,4.90
2022-08-29T23:12:38.997Z,5.27
2022-08-29T23:15:12.988Z,4.90
2022-08-29T23:17:40.413Z,5.40
2022-08-29T23:20:20.615Z,5.00
2022-08-29T23:22:47.559Z,5.20
2022-08-29T23:25:15.789Z,5.30
2022-08-29T23:27:43.005Z,5.27
2022-08-29T23:30:12.051Z,5.30
2022-08-29T23:32:39.493Z,5.30
2022-08-29T23:35:07.707Z,4.87
2022-08-29T23:37:37.793Z,5.43
2022-08-29T23:40:08.451Z,5.73
2022-08-29T23:42:35.491Z,6.13
2022-08-29T23:45:12.537Z,5.57
2022-08-29T23:47:39.375Z,5.47
2022-08-29T23:50:06.648Z,5.53
2022-08-29T23:52:33.631Z,6.07
2022-08-29T23:55:01.806Z,5.77
2022-08-29T23:57:28.645Z,5.60
